createdAt,value
2023-10-31T00:01:34.927Z,9.90
2023-10-31T00:04:03.319Z,10.83
2023-10-31T00:06:31.659Z,9.67
2023-10-31T00:09:00.057Z,9.53
2023-10-31T00:11:28.450Z,13.03
2023-10-31T00:13:56.846Z,9.20
2023-10-31T00:16:26.709Z,10.07
2023-10-31T00:18:55.146Z,10.03
2023-10-31T00:21:23.589Z,11.63
2023-10-31T00:23:51.973Z,10.97
2023-10-31T00:26:20.440Z,9.60
2023-10-31T00:28:55.583Z,8.90
2023-10-31T00:31:24.002Z,9.27
2023-10-31T00:33:53.812Z,10.40
2023-10-31T00:36:22.373Z,8.47
2023-10-31T00:38:50.711Z,7.17
2023-10-31T00:41:19.120Z,7.80
2023-10-31T00:43:47.570Z,6.27
2023-10-31T00:46:16.308Z,8.50
2023-10-31T00:48:44.655Z,6.37
2023-10-31T00:51:14.435Z,8.83
2023-10-31T00:53:42.877Z,9.37
2023-10-31T00:56:11.358Z,8.23
2023-10-31T00:58:39.801Z,6.47
2023-10-31T01:01:09.300Z,9.30
2023-10-31T01:03:38.456Z,9.07
2023-10-31T01:06:07.745Z,11.50
2023-10-31T01:08:37.759Z,8.67
2023-10-31T01:11:06.207Z,10.30
2023-10-31T01:13:35.403Z,10.47
2023-10-31T01:16:04.058Z,7.60
2023-10-31T01:18:33.215Z,6.77
2023-10-31T01:21:02.218Z,8.60
2023-10-31T01:23:30.604Z,6.50
2023-10-31T01:26:01.232Z,8.73
2023-10-31T01:28:29.629Z,9.00
2023-10-31T01:30:58.061Z,9.00
2023-10-31T01:33:27.042Z,8.60
2023-10-31T01:35:55.527Z,7.47
2023-10-31T01:38:23.857Z,12.03
2023-10-31T01:40:52.910Z,8.60
2023-10-31T01:43:36.144Z,7.03
2023-10-31T01:46:05.404Z,6.10
2023-10-31T01:48:35.076Z,7.03
2023-10-31T01:51:06.209Z,6.80
2023-10-31T01:53:36.144Z,7.20
2023-10-31T01:56:06.205Z,8.63
2023-10-31T01:58:37.757Z,10.70
2023-10-31T02:01:07.786Z,7.77
2023-10-31T02:03:36.536Z,7.17
2023-10-31T02:06:05.865Z,4.57
2023-10-31T02:08:34.579Z,8.00
2023-10-31T02:11:03.051Z,9.10
2023-10-31T02:13:31.505Z,9.30
2023-10-31T02:16:01.516Z,6.50
2023-10-31T02:18:30.322Z,9.00
2023-10-31T02:21:00.016Z,6.40
2023-10-31T02:23:30.503Z,9.33
2023-10-31T02:25:59.806Z,6.77
2023-10-31T02:28:29.143Z,10.53
2023-10-31T02:30:57.726Z,7.30
2023-10-31T02:33:26.378Z,8.60
2023-10-31T02:35:54.819Z,9.40
2023-10-31T02:38:23.267Z,9.13
2023-10-31T02:40:54.380Z,10.90
2023-10-31T02:43:23.172Z,9.53
2023-10-31T02:45:51.544Z,9.13
2023-10-31T02:48:21.457Z,10.70
2023-10-31T02:50:49.876Z,7.40
2023-10-31T02:53:18.264Z,8.90
2023-10-31T02:55:46.791Z,8.77
2023-10-31T02:58:18.312Z,9.83
2023-10-31T03:00:46.778Z,8.27
2023-10-31T03:03:15.363Z,11.70
2023-10-31T03:05:43.764Z,9.33
2023-10-31T03:08:13.481Z,6.37
2023-10-31T03:10:43.331Z,9.00
2023-10-31T03:13:11.746Z,7.20
2023-10-31T03:15:41.530Z,6.83
2023-10-31T03:18:09.975Z,8.83
2023-10-31T03:20:38.363Z,9.50
2023-10-31T03:23:06.721Z,8.20
2023-10-31T03:25:35.176Z,8.10
2023-10-31T03:28:03.972Z,8.70
2023-10-31T03:30:32.342Z,12.63
2023-10-31T03:33:02.732Z,8.93
2023-10-31T03:35:31.781Z,9.17
2023-10-31T03:38:00.314Z,6.27
2023-10-31T03:40:28.700Z,10.97
2023-10-31T03:42:57.136Z,6.03
2023-10-31T03:45:25.548Z,10.23
2023-10-31T03:47:54.131Z,8.03
2023-10-31T03:50:24.087Z,8.33
2023-10-31T03:52:52.517Z,8.43
2023-10-31T03:55:21.212Z,7.07
2023-10-31T03:57:49.598Z,5.20
2023-10-31T04:00:18.883Z,6.63
2023-10-31T04:02:47.539Z,6.23
2023-10-31T04:05:17.218Z,6.43
2023-10-31T04:07:47.942Z,10.13
2023-10-31T04:10:16.580Z,7.70
2023-10-31T04:12:44.952Z,6.90
2023-10-31T04:15:13.263Z,8.13
2023-10-31T04:17:41.765Z,5.43
2023-10-31T04:20:10.849Z,6.57
2023-10-31T04:22:39.230Z,6.90
2023-10-31T04:25:09.855Z,6.30
2023-10-31T04:27:38.183Z,5.00
2023-10-31T04:30:07.486Z,4.27
2023-10-31T04:32:35.861Z,5.53
2023-10-31T04:35:04.513Z,4.50
2023-10-31T04:37:35.354Z,6.13
2023-10-31T04:40:04.192Z,4.07
2023-10-31T04:42:34.550Z,6.40
2023-10-31T04:45:03.109Z,5.83
2023-10-31T04:47:33.309Z,7.83
2023-10-31T04:50:01.964Z,9.03
2023-10-31T04:52:30.418Z,6.43
2023-10-31T04:54:58.765Z,8.50
2023-10-31T04:57:27.153Z,9.33
2023-10-31T04:59:58.687Z,8.27
2023-10-31T05:02:27.224Z,4.77
2023-10-31T05:04:55.714Z,7.97
2023-10-31T05:07:24.116Z,3.83
2023-10-31T05:09:52.518Z,3.83
2023-10-31T05:12:20.878Z,5.80
2023-10-31T05:14:49.156Z,5.07
2023-10-31T05:17:19.008Z,7.40
2023-10-31T05:19:47.351Z,5.73
2023-10-31T05:22:15.729Z,4.83
2023-10-31T05:24:44.064Z,6.60
2023-10-31T05:27:12.418Z,4.40
2023-10-31T05:29:41.322Z,5.40
2023-10-31T05:32:10.193Z,5.10
2023-10-31T05:34:39.938Z,3.73
2023-10-31T05:37:08.394Z,6.07
2023-10-31T05:39:37.937Z,8.13
2023-10-31T05:42:06.522Z,6.80
2023-10-31T05:44:34.854Z,10.77
2023-10-31T05:47:03.287Z,8.13
2023-10-31T05:49:32.282Z,4.47
2023-10-31T05:52:02.123Z,6.87
2023-10-31T05:54:30.578Z,8.73
2023-10-31T05:56:58.967Z,7.30
2023-10-31T05:59:27.435Z,15.40
2023-10-31T06:01:55.838Z,5.67
2023-10-31T06:04:26.011Z,7.90
2023-10-31T06:06:54.489Z,6.87
2023-10-31T06:09:24.220Z,6.57
2023-10-31T06:11:52.604Z,12.73
2023-10-31T06:14:21.022Z,7.70
2023-10-31T06:16:49.526Z,7.40
2023-10-31T06:19:17.921Z,6.90
2023-10-31T06:21:46.296Z,9.47
2023-10-31T06:24:14.901Z,12.57
2023-10-31T06:26:44.666Z,18.77
2023-10-31T06:29:37.023Z,25.97
2023-10-31T06:32:02.514Z,26.73
2023-10-31T06:34:31.021Z,24.13
2023-10-31T06:36:59.391Z,18.60
2023-10-31T06:39:27.676Z,12.43
2023-10-31T06:41:58.304Z,9.70
2023-10-31T06:44:27.932Z,7.37
2023-10-31T06:54:14.958Z,10.87
2023-10-31T06:57:39.769Z,7.03
2023-10-31T07:01:06.184Z,7.93
2023-10-31T07:09:24.532Z,8.80
2023-10-31T07:20:33.092Z,7.40
2023-10-31T07:23:04.738Z,7.67
2023-10-31T07:26:06.987Z,5.67
2023-10-31T07:29:31.248Z,7.10
2023-10-31T07:32:18.194Z,6.30
2023-10-31T07:35:28.356Z,6.57
2023-10-31T07:38:06.746Z,6.97
2023-10-31T07:40:55.383Z,10.63
2023-10-31T07:43:57.272Z,10.03
2023-10-31T07:46:32.732Z,11.13
2023-10-31T07:49:01.388Z,7.80
2023-10-31T07:51:30.069Z,8.73
2023-10-31T07:53:59.436Z,8.47
2023-10-31T07:56:28.276Z,10.37
2023-10-31T07:58:59.760Z,8.53
2023-10-31T08:01:34.049Z,8.50
2023-10-31T08:04:20.955Z,15.53
2023-10-31T08:07:31.194Z,14.43
2023-10-31T08:10:19.454Z,14.73
2023-10-31T08:13:17.447Z,16.37
2023-10-31T08:16:07.684Z,12.53
2023-10-31T08:18:56.196Z,18.00
2023-10-31T22:35:10.712Z,16.67
2023-10-31T22:37:39.178Z,17.30
2023-10-31T22:40:09.099Z,11.80
2023-10-31T22:42:38.006Z,21.07
2023-10-31T22:45:07.705Z,13.37
2023-10-31T22:47:39.780Z,15.27
2023-10-31T22:50:12.032Z,13.73
2023-10-31T22:52:40.558Z,14.50
2023-10-31T22:55:10.194Z,16.30
2023-10-31T22:57:40.124Z,16.00
2023-10-31T23:00:21.725Z,15.73
2023-10-31T23:02:50.182Z,15.17
2023-10-31T23:05:20.159Z,12.30
2023-10-31T23:07:53.637Z,14.50
2023-10-31T23:10:25.616Z,14.80
2023-10-31T23:12:54.059Z,20.63
2023-10-31T23:15:22.578Z,14.17
2023-10-31T23:17:54.070Z,19.00
2023-10-31T23:20:24.062Z,12.83
2023-10-31T23:22:53.229Z,15.53
2023-10-31T23:25:21.788Z,13.63
2023-10-31T23:27:50.167Z,13.40
2023-10-31T23:30:18.665Z,16.30
2023-10-31T23:32:47.066Z,16.53
2023-10-31T23:35:16.177Z,13.77
2023-10-31T23:37:50.327Z,13.57
2023-10-31T23:40:20.292Z,17.93
2023-10-31T23:42:48.635Z,17.70
2023-10-31T23:45:17.000Z,20.63
2023-10-31T23:47:45.432Z,17.80
2023-10-31T23:50:13.835Z,16.07
2023-10-31T23:52:42.207Z,15.60
2023-10-31T23:55:11.955Z,14.73
2023-10-31T23:57:40.262Z,14.37
